createdAt,value
2022-07-29T00:03:06.846Z,87.92523
2022-07-29T00:08:12.220Z,87.58974
2022-07-29T00:13:13.832Z,87.92523
2022-07-29T00:18:14.790Z,87.92523
2022-07-29T00:23:15.727Z,87.58974
2022-07-29T00:28:16.706Z,87.58974
2022-07-29T00:33:17.834Z,87.25581
2022-07-29T00:38:18.897Z,87.25581
2022-07-29T00:43:20.051Z,87.25581
2022-07-29T00:48:21.297Z,86.92343
2022-07-29T00:53:22.545Z,87.58974
2022-07-29T00:58:24.564Z,87.25581
2022-07-29T01:03:25.625Z,86.92343
2022-07-29T01:08:26.814Z,86.92343
2022-07-29T01:13:27.746Z,86.59259
2022-07-29T01:33:55.371Z,86.59259
2022-07-29T01:38:56.433Z,86.92343
2022-07-29T01:44:02.298Z,86.92343
2022-07-29T01:49:03.293Z,86.92343
2022-07-29T01:54:04.309Z,87.25581
2022-07-29T01:59:05.195Z,86.92343
2022-07-29T02:04:06.143Z,87.25581
2022-07-29T02:09:07.134Z,86.92343
2022-07-29T02:19:10.062Z,85.93548
2022-07-29T02:24:11.025Z,86.26328
2022-07-29T02:29:11.952Z,86.26328
2022-07-29T02:34:13.488Z,85.6092
2022-07-29T02:39:14.629Z,85.6092
2022-07-29T02:44:15.841Z,85.2844
2022-07-29T02:49:17.103Z,85.2844
2022-07-29T02:54:18.534Z,85.2844
2022-07-29T02:59:19.981Z,85.2844
2022-07-29T03:04:21.340Z,85.2844
2022-07-29T03:09:22.496Z,85.2844
2022-07-29T03:14:23.376Z,85.2844
2022-07-29T03:19:24.292Z,84.9611
2022-07-29T03:24:25.305Z,84.63927
2022-07-29T03:29:33.297Z,84.9611
2022-07-29T03:34:35.361Z,84.9611
2022-07-29T03:39:36.268Z,84.9611
2022-07-29T03:44:37.152Z,84.63927
2022-07-29T03:49:38.482Z,84.63927
2022-07-29T03:54:39.559Z,84.0
2022-07-29T03:59:40.506Z,84.0
2022-07-29T04:04:41.512Z,84.0
2022-07-29T04:09:42.416Z,83.05192
2022-07-29T04:14:43.340Z,83.05192
2022-07-29T04:19:44.227Z,82.42697
2022-07-29T04:24:45.154Z,82.42697
2022-07-29T04:29:56.577Z,82.11659
2022-07-29T04:34:58.524Z,82.42697
2022-07-29T04:39:59.519Z,82.42697
2022-07-29T04:50:00.923Z,82.11659
2022-07-29T04:55:01.826Z,83.05192
2022-07-29T05:00:02.744Z,82.73874
2022-07-29T05:05:03.702Z,82.11659
2022-07-29T05:10:04.817Z,81.80761
2022-07-29T05:15:05.803Z,81.19376
2022-07-29T05:20:06.811Z,81.19376
2022-07-29T05:25:09.290Z,81.19376
2022-07-29T05:30:10.368Z,81.19376
2022-07-29T05:35:11.415Z,82.73874
2022-07-29T05:40:12.382Z,82.42697
2022-07-29T05:45:13.369Z,82.11659
2022-07-29T05:50:14.590Z,81.5
2022-07-29T05:55:15.500Z,81.19376
2022-07-29T06:00:16.432Z,81.5
2022-07-29T06:10:17.856Z,80.28319
2022-07-29T06:15:19.034Z,79.68282
2022-07-29T06:20:20.013Z,80.88889
2022-07-29T06:25:28.594Z,81.19376
2022-07-29T06:35:38.666Z,79.38462
2022-07-29T06:40:43.722Z,79.38462
2022-07-29T06:45:45.667Z,78.79212
2022-07-29T06:50:46.642Z,78.79212
2022-07-29T06:55:47.636Z,79.68282
2022-07-29T07:00:48.767Z,79.08772
2022-07-29T07:05:50.379Z,79.08772
2022-07-29T07:15:52.006Z,77.91304
2022-07-29T07:20:52.950Z,79.08772
2022-07-29T07:36:19.810Z,77.62256
2022-07-29T07:46:25.860Z,77.62256
2022-07-29T07:51:26.920Z,77.91304
2022-07-29T07:56:30.715Z,77.62256
2022-07-29T08:01:48.112Z,76.75862
2022-07-29T08:06:56.813Z,76.18884
2022-07-29T08:22:09.004Z,74.78556
2022-07-29T08:32:10.388Z,75.62393
2022-07-29T08:37:11.616Z,76.75862
2022-07-29T08:42:12.568Z,77.62256
2022-07-29T08:47:13.531Z,77.04536
2022-07-29T08:52:14.558Z,78.49782
2022-07-29T08:57:15.544Z,75.90578
2022-07-29T09:02:18.781Z,75.90578
2022-07-29T09:07:19.703Z,76.47312
2022-07-29T09:12:29.396Z,76.47312
2022-07-29T09:22:31.746Z,74.23256
2022-07-29T09:27:32.801Z,74.78556
2022-07-29T09:32:33.704Z,74.78556
2022-07-29T09:37:34.797Z,77.33333
2022-07-29T09:42:35.791Z,78.49782
2022-07-29T09:47:39.244Z,79.38462
2022-07-29T09:52:46.726Z,79.08772
2022-07-29T09:57:47.660Z,79.38462
2022-07-29T10:02:48.576Z,82.11659
2022-07-29T10:07:53.474Z,80.28319
2022-07-29T10:12:56.387Z,78.49782
2022-07-29T10:18:06.022Z,81.19376
2022-07-29T10:23:12.556Z,82.73874
2022-07-29T10:28:16.540Z,80.58537
2022-07-29T10:33:17.939Z,79.98234
2022-07-29T10:38:18.872Z,81.19376
2022-07-29T10:43:20.149Z,80.28319
2022-07-29T10:48:21.128Z,83.05192
2022-07-29T10:53:24.883Z,79.98234
2022-07-29T10:58:26.280Z,78.79212
2022-07-29T11:03:27.598Z,84.0
2022-07-29T11:08:29.685Z,80.58537
2022-07-29T11:13:30.559Z,81.80761
2022-07-29T11:18:37.113Z,80.58537
2022-07-29T11:23:38.046Z,81.19376
2022-07-29T11:28:39.684Z,80.58537
2022-07-29T11:33:56.095Z,80.88889
2022-07-29T11:38:58.014Z,80.28319
2022-07-29T11:44:01.621Z,78.79212
2022-07-29T11:49:02.703Z,78.79212
2022-07-29T11:54:15.593Z,80.28319
2022-07-29T11:59:17.736Z,77.33333
2022-07-29T12:04:18.722Z,77.62256
2022-07-29T12:09:20.854Z,78.79212
2022-07-29T12:14:21.814Z,75.90578
2022-07-29T12:19:24.332Z,78.79212
2022-07-29T12:24:27.422Z,74.78556
2022-07-29T12:29:35.638Z,76.75862
2022-07-29T12:39:37.377Z,73.95781
2022-07-29T12:44:38.318Z,74.50847
2022-07-29T12:49:39.287Z,77.62256
2022-07-29T12:54:40.219Z,77.04536
2022-07-29T12:59:41.494Z,74.78556
2022-07-29T13:04:42.419Z,74.50847
2022-07-29T13:09:43.348Z,76.47312
2022-07-29T13:14:44.273Z,75.34328
2022-07-29T13:19:45.299Z,76.18884
2022-07-29T13:24:46.228Z,75.62393
2022-07-29T13:29:47.162Z,72.06653
2022-07-29T13:34:48.114Z,74.50847
2022-07-29T13:39:52.919Z,74.78556
2022-07-29T13:44:54.309Z,79.38462
2022-07-29T13:49:55.239Z,75.90578
2022-07-29T13:54:56.293Z,75.90578
2022-07-29T13:59:57.222Z,75.62393
2022-07-29T14:04:58.204Z,77.62256
2022-07-29T14:09:59.152Z,73.68421
2022-07-29T14:15:00.096Z,73.14046
2022-07-29T14:20:00.991Z,72.33333
2022-07-29T14:25:03.445Z,72.33333
2022-07-29T14:30:16.289Z,74.78556
2022-07-29T14:35:18.180Z,72.87029
2022-07-29T14:40:19.192Z,72.33333
2022-07-29T14:45:20.120Z,71.53623
2022-07-29T14:50:29.890Z,71.80083
2022-07-29T14:55:33.245Z,73.95781
2022-07-29T15:00:34.201Z,74.50847
2022-07-29T15:05:35.135Z,76.18884
2022-07-29T15:10:36.133Z,76.47312
2022-07-29T15:15:37.086Z,73.95781
2022-07-29T15:20:37.995Z,73.41176
2022-07-29T15:25:39.260Z,73.68421
2022-07-29T15:30:40.716Z,72.87029
2022-07-29T15:35:41.928Z,75.62393
2022-07-29T15:40:42.991Z,74.23256
2022-07-29T15:45:44.016Z,75.62393
2022-07-29T15:55:45.722Z,74.50847
2022-07-29T16:05:52.303Z,77.62256
2022-07-29T16:10:53.409Z,77.33333
2022-07-29T16:20:54.917Z,75.34328
2022-07-29T16:26:00.506Z,75.62393
2022-07-29T16:32:08.375Z,15.0496
2022-07-29T16:39:22.778Z,64.78431
2022-07-29T16:44:25.212Z,67.69478
2022-07-29T16:49:26.465Z,68.69636
2022-07-29T16:54:27.419Z,69.20325
2022-07-29T16:59:28.322Z,69.71429
2022-07-29T17:04:29.250Z,71.27273
2022-07-29T17:09:30.146Z,71.01031
2022-07-29T17:14:31.060Z,72.33333
2022-07-29T17:19:32.011Z,74.23256
2022-07-29T17:29:33.407Z,73.95781
2022-07-29T17:34:34.329Z,73.14046
2022-07-29T17:39:35.286Z,74.23256
2022-07-29T17:44:36.578Z,73.41176
2022-07-29T17:49:37.596Z,73.95781
2022-07-29T17:54:38.486Z,73.41176
2022-07-29T17:59:39.440Z,75.06383
2022-07-29T18:04:40.329Z,75.06383
2022-07-29T18:09:41.262Z,75.34328
2022-07-29T18:14:42.549Z,76.47312
2022-07-29T18:19:43.521Z,77.62256
2022-07-29T18:24:44.452Z,77.62256
2022-07-29T18:29:45.382Z,77.91304
2022-07-29T18:34:52.160Z,78.49782
2022-07-29T18:39:56.028Z,79.38462
2022-07-29T18:44:59.010Z,79.38462
2022-07-29T18:49:59.977Z,78.79212
2022-07-29T18:55:00.876Z,79.68282
2022-07-29T19:00:01.777Z,79.68282
2022-07-29T19:05:02.667Z,79.38462
2022-07-29T19:10:03.677Z,78.79212
2022-07-29T19:15:04.618Z,78.49782
2022-07-29T19:25:05.997Z,80.58537
2022-07-29T19:30:06.920Z,81.80761
2022-07-29T19:35:07.843Z,82.73874
2022-07-29T19:40:08.828Z,82.11659
2022-07-29T19:45:09.781Z,80.88889
2022-07-29T19:50:10.728Z,80.88889
2022-07-29T19:55:11.615Z,82.42697
2022-07-29T20:10:13.453Z,83.05192
2022-07-29T20:15:16.590Z,83.05192
2022-07-29T20:20:17.653Z,85.2844
2022-07-29T20:25:18.645Z,84.63927
2022-07-29T20:30:19.569Z,83.05192
2022-07-29T20:35:22.062Z,82.42697
2022-07-29T20:40:22.990Z,83.68254
2022-07-29T20:45:23.905Z,83.05192
2022-07-29T20:50:24.802Z,83.05192
2022-07-29T20:55:25.709Z,83.36652
2022-07-29T21:00:26.614Z,84.63927
2022-07-29T21:05:27.527Z,83.36652
2022-07-29T21:10:28.437Z,83.36652
2022-07-29T21:15:29.397Z,83.36652
2022-07-29T21:20:30.618Z,82.73874
2022-07-29T21:25:31.516Z,83.05192
2022-07-29T21:30:32.410Z,82.11659
2022-07-29T21:36:06.171Z,82.73874
2022-07-29T21:41:11.514Z,84.0
2022-07-29T21:46:12.714Z,84.31891
2022-07-29T21:51:13.662Z,84.0
2022-07-29T21:56:15.200Z,84.9611
2022-07-29T22:01:18.541Z,84.0
2022-07-29T22:06:19.479Z,84.31891
2022-07-29T22:11:20.425Z,83.36652
2022-07-29T22:16:21.412Z,83.36652
2022-07-29T22:21:22.505Z,84.0
2022-07-29T22:26:23.539Z,83.36652
2022-07-29T22:31:24.483Z,83.05192
2022-07-29T22:36:25.436Z,83.05192
2022-07-29T22:41:26.410Z,84.31891
2022-07-29T22:46:27.420Z,83.05192
2022-07-29T22:51:28.324Z,82.73874
2022-07-29T22:56:29.221Z,84.63927
2022-07-29T23:01:37.641Z,84.31891
2022-07-29T23:06:38.992Z,84.31891
2022-07-29T23:11:40.129Z,83.68254
2022-07-29T23:16:41.088Z,83.68254
2022-07-29T23:21:42.147Z,84.0
2022-07-29T23:26:43.401Z,83.36652
2022-07-29T23:31:44.356Z,83.68254
2022-07-29T23:36:49.259Z,83.36652
2022-07-29T23:41:50.193Z,83.05192
2022-07-29T23:46:51.224Z,83.05192
2022-07-29T23:51:52.259Z,83.05192
2022-07-29T23:56:53.147Z,82.11659
